createdAt,value
2018-04-17T00:01:06.816Z,8.62
2018-04-17T00:03:35.167Z,8.56
2018-04-17T00:06:03.451Z,8.48
2018-04-17T00:08:31.823Z,8.39
2018-04-17T00:11:00.111Z,8.19
2018-04-17T00:13:28.406Z,8.05
2018-04-17T00:15:56.961Z,7.89
2018-04-17T00:18:25.227Z,7.66
2018-04-17T00:20:53.517Z,7.49
2018-04-17T00:23:21.813Z,7.39
2018-04-17T00:25:51.386Z,7.37
2018-04-17T00:28:19.676Z,7.40
2018-04-17T00:30:48.062Z,7.29
2018-04-17T00:33:16.892Z,7.28
2018-04-17T00:35:46.755Z,7.23
2018-04-17T00:38:15.076Z,7.17
2018-04-17T00:40:43.672Z,7.18
2018-04-17T00:43:12.634Z,7.15
2018-04-17T00:45:40.919Z,7.09
2018-04-17T00:48:09.261Z,7.14
2018-04-17T00:50:37.531Z,7.14
2018-04-17T00:53:23.515Z,7.13
2018-04-17T00:55:51.807Z,7.08
2018-04-17T00:58:20.213Z,7.04
2018-04-17T01:00:48.489Z,7.02
2018-04-17T01:03:16.799Z,6.97
2018-04-17T01:05:45.843Z,6.90
2018-04-17T01:08:14.446Z,6.79
2018-04-17T01:10:43.602Z,6.78
2018-04-17T01:13:12.651Z,6.64
2018-04-17T01:15:40.924Z,6.57
2018-04-17T01:18:09.482Z,6.48
2018-04-17T01:20:37.756Z,6.45
2018-04-17T01:23:07.371Z,6.43
2018-04-17T01:25:35.662Z,6.41
2018-04-17T01:28:04.794Z,6.37
2018-04-17T01:30:33.083Z,6.33
2018-04-17T01:33:01.483Z,6.32
2018-04-17T01:35:30.555Z,6.32
2018-04-17T01:37:59.465Z,6.33
2018-04-17T01:40:28.525Z,6.34
2018-04-17T01:42:56.788Z,6.30
2018-04-17T01:45:25.103Z,6.29
2018-04-17T01:47:54.970Z,6.15
2018-04-17T01:50:23.255Z,6.06
2018-04-17T01:52:51.573Z,6.07
2018-04-17T01:55:19.855Z,6.00
2018-04-17T01:57:48.868Z,5.99
2018-04-17T02:00:18.106Z,5.99
2018-04-17T02:02:46.463Z,5.97
2018-04-17T02:05:14.800Z,5.95
2018-04-17T02:07:43.114Z,5.93
2018-04-17T02:10:12.175Z,5.94
2018-04-17T02:12:40.452Z,5.94
2018-04-17T02:15:09.606Z,5.92
2018-04-17T02:17:37.879Z,5.86
2018-04-17T02:20:06.671Z,5.86
2018-04-17T02:22:34.971Z,5.83
2018-04-17T02:25:03.237Z,5.80
2018-04-17T02:27:31.506Z,5.71
2018-04-17T02:30:00.846Z,5.72
2018-04-17T02:32:29.942Z,5.68
2018-04-17T02:34:58.930Z,5.68
2018-04-17T02:37:27.990Z,5.66
2018-04-17T02:39:56.260Z,5.62
2018-04-17T02:42:24.851Z,5.60
2018-04-17T02:44:53.363Z,5.50
2018-04-17T02:47:21.638Z,5.49
2018-04-17T02:49:49.920Z,5.37
2018-04-17T02:52:18.294Z,5.29
2018-04-17T02:54:46.575Z,5.28
2018-04-17T02:57:14.877Z,5.24
2018-04-17T02:59:43.154Z,5.24
2018-04-17T03:02:12.051Z,5.25
2018-04-17T03:04:40.766Z,5.15
2018-04-17T03:07:11.267Z,5.23
2018-04-17T03:09:40.366Z,5.19
2018-04-17T03:12:08.638Z,5.17
2018-04-17T03:14:36.918Z,5.12
2018-04-17T03:17:05.190Z,5.10
2018-04-17T03:19:33.492Z,5.05
2018-04-17T03:22:01.766Z,5.03
2018-04-17T03:24:30.811Z,5.02
2018-04-17T03:26:59.104Z,5.02
2018-04-17T03:29:28.094Z,4.99
2018-04-17T03:31:56.463Z,4.91
2018-04-17T03:34:24.764Z,4.97
2018-04-17T03:36:53.030Z,4.96
2018-04-17T03:39:21.511Z,4.93
2018-04-17T03:41:49.874Z,4.87
2018-04-17T03:44:18.240Z,4.84
2018-04-17T03:46:46.515Z,4.84
2018-04-17T03:49:14.810Z,4.79
2018-04-17T03:51:43.286Z,4.79
2018-04-17T03:54:11.555Z,4.77
2018-04-17T03:56:39.834Z,4.76
2018-04-17T03:59:08.419Z,4.77
2018-04-17T04:01:37.730Z,4.67
2018-04-17T04:04:05.983Z,4.67
2018-04-17T04:06:34.385Z,4.67
2018-04-17T04:09:02.659Z,4.64
2018-04-17T04:11:32.687Z,4.63
2018-04-17T04:14:02.099Z,4.64
2018-04-17T04:16:48.178Z,4.65
2018-04-17T04:19:34.080Z,4.71
2018-04-17T04:25:29.762Z,4.65
2018-04-17T04:27:58.735Z,4.67
2018-04-17T04:30:27.024Z,4.65
2018-04-17T04:32:55.352Z,4.66
2018-04-17T04:35:23.743Z,4.64
2018-04-17T04:37:52.020Z,4.62
2018-04-17T04:40:21.205Z,4.67
2018-04-17T04:42:49.689Z,4.70
2018-04-17T04:45:18.616Z,4.78
2018-04-17T04:47:47.279Z,4.80
2018-04-17T04:50:15.778Z,4.81
2018-04-17T04:52:44.047Z,4.81
2018-04-17T04:55:12.306Z,4.83
2018-04-17T04:57:40.630Z,4.89
2018-04-17T05:00:08.863Z,4.86
2018-04-17T05:02:38.280Z,4.86
2018-04-17T05:05:08.114Z,4.92
2018-04-17T05:07:36.384Z,4.99
2018-04-17T05:10:04.680Z,5.05
2018-04-17T05:12:32.947Z,5.11
2018-04-17T05:15:01.349Z,5.16
2018-04-17T05:17:30.235Z,5.27
2018-04-17T05:19:58.587Z,5.30
2018-04-17T05:22:26.878Z,5.35
2018-04-17T05:24:55.328Z,5.39
2018-04-17T05:27:23.592Z,5.46
2018-04-17T05:29:51.884Z,5.53
2018-04-17T05:32:20.358Z,5.61
2018-04-17T05:34:48.699Z,5.68
2018-04-17T05:37:17.511Z,5.74
2018-04-17T05:39:46.660Z,5.78
2018-04-17T05:42:14.941Z,5.87
2018-04-17T05:44:43.310Z,5.97
2018-04-17T05:47:11.675Z,6.10
2018-04-17T05:49:39.954Z,6.27
2018-04-17T05:52:08.232Z,6.40
2018-04-17T05:54:36.535Z,6.54
2018-04-17T05:57:04.815Z,6.72
2018-04-17T05:59:33.310Z,6.89
2018-04-17T06:02:01.591Z,7.05
2018-04-17T06:04:29.929Z,7.17
2018-04-17T06:06:58.269Z,7.45
2018-04-17T06:09:27.310Z,7.68
2018-04-17T06:11:56.442Z,7.80
2018-04-17T06:14:24.740Z,7.95
2018-04-17T06:16:53.784Z,8.12
2018-04-17T06:19:22.059Z,8.26
2018-04-17T06:21:50.632Z,8.37
2018-04-17T06:24:18.906Z,8.46
2018-04-17T06:26:47.175Z,8.56
2018-04-17T06:29:15.479Z,8.66
2018-04-17T06:31:43.759Z,8.85
2018-04-17T06:34:12.971Z,8.94
2018-04-17T06:36:41.247Z,9.08
2018-04-17T06:39:09.543Z,9.18
2018-04-17T06:41:37.883Z,9.24
2018-04-17T06:44:06.126Z,9.34
2018-04-17T06:46:34.412Z,9.47
2018-04-17T06:49:03.182Z,9.57
2018-04-17T06:51:32.210Z,9.65
2018-04-17T06:54:00.875Z,9.72
2018-04-17T06:56:30.570Z,9.86
2018-04-17T06:58:59.635Z,9.87
2018-04-17T07:01:27.902Z,9.90
2018-04-17T07:03:56.175Z,9.97
2018-04-17T07:06:24.552Z,10.21
2018-04-17T07:08:53.641Z,10.26
2018-04-17T07:11:22.152Z,10.33
2018-04-17T07:13:51.243Z,10.44
2018-04-17T07:16:20.162Z,10.57
2018-04-17T07:18:50.595Z,10.66
2018-04-17T07:21:19.651Z,10.74
2018-04-17T07:23:47.982Z,10.83
2018-04-17T07:26:16.284Z,10.90
2018-04-17T07:28:44.573Z,11.07
2018-04-17T07:31:12.883Z,11.14
2018-04-17T07:33:41.163Z,11.30
2018-04-17T07:36:09.531Z,11.40
2018-04-17T07:38:38.001Z,11.46
2018-04-17T07:41:06.641Z,11.54
2018-04-17T07:43:35.699Z,11.61
2018-04-17T07:46:04.038Z,11.65
2018-04-17T07:48:50.362Z,11.79
2018-04-17T07:51:18.664Z,11.85
2018-04-17T07:53:46.942Z,11.99
2018-04-17T07:56:15.230Z,12.04
2018-04-17T07:58:43.826Z,12.11
2018-04-17T08:01:12.578Z,12.15
2018-04-17T08:03:41.195Z,12.17
2018-04-17T08:06:10.078Z,12.38
2018-04-17T08:08:38.782Z,12.48
2018-04-17T08:11:07.570Z,12.47
2018-04-17T08:13:36.621Z,12.54
2018-04-17T08:16:04.899Z,12.58
2018-04-17T08:18:33.484Z,12.73
2018-04-17T08:21:01.762Z,12.82
2018-04-17T08:23:30.700Z,12.95
2018-04-17T08:26:00.464Z,12.97
2018-04-17T08:28:29.471Z,12.95
2018-04-17T08:30:57.766Z,13.14
2018-04-17T08:33:26.131Z,13.19
2018-04-17T08:35:55.052Z,13.38
2018-04-17T08:38:24.302Z,13.40
2018-04-17T08:40:52.903Z,13.30
2018-04-17T08:43:21.371Z,13.12
2018-04-17T08:45:51.216Z,13.29
2018-04-17T08:48:21.227Z,13.33
2018-04-17T08:50:49.537Z,13.39
2018-04-17T08:53:19.599Z,13.47
2018-04-17T08:55:47.867Z,13.54
2018-04-17T08:58:17.595Z,13.58
2018-04-17T09:00:45.896Z,13.54
2018-04-17T09:03:14.985Z,13.67
2018-04-17T09:05:43.988Z,13.68
2018-04-17T09:08:12.342Z,13.73
2018-04-17T09:10:40.633Z,13.93
2018-04-17T09:13:08.941Z,14.14
2018-04-17T09:15:38.227Z,14.22
2018-04-17T09:18:06.526Z,14.15
2018-04-17T09:20:35.907Z,14.07
2018-04-17T09:23:04.199Z,13.85
2018-04-17T09:25:33.287Z,13.90
2018-04-17T09:28:01.583Z,14.16
2018-04-17T09:30:30.651Z,14.09
2018-04-17T09:32:58.941Z,14.02
2018-04-17T09:35:27.234Z,14.14
2018-04-17T09:37:57.231Z,14.21
2018-04-17T09:40:25.894Z,14.31
2018-04-17T09:42:54.278Z,14.37
2018-04-17T09:45:22.563Z,14.27
2018-04-17T09:47:50.846Z,14.15
2018-04-17T09:50:19.452Z,14.18
2018-04-17T09:52:47.791Z,14.32
2018-04-17T09:55:16.254Z,14.23
2018-04-17T09:57:45.322Z,14.33
2018-04-17T10:00:14.383Z,14.52
2018-04-17T10:02:42.827Z,14.46
2018-04-17T10:05:11.220Z,14.52
2018-04-17T10:07:39.650Z,14.58
2018-04-17T10:10:08.122Z,14.52
2018-04-17T10:12:36.467Z,14.45
2018-04-17T10:15:04.783Z,14.67
2018-04-17T10:17:33.655Z,14.58
2018-04-17T10:20:04.188Z,14.49
2018-04-17T10:22:32.532Z,14.61
2018-04-17T10:25:01.726Z,14.72
2018-04-17T10:27:30.394Z,14.74
2018-04-17T10:29:59.534Z,14.57
2018-04-17T10:32:27.914Z,14.63
2018-04-17T10:34:56.232Z,14.77
2018-04-17T10:37:25.123Z,14.88
2018-04-17T10:39:53.677Z,14.92
2018-04-17T10:42:22.356Z,15.13
2018-04-17T10:44:51.445Z,15.03
2018-04-17T10:47:20.384Z,15.05
2018-04-17T10:49:48.672Z,15.19
2018-04-17T10:52:17.723Z,15.27
2018-04-17T10:54:46.017Z,15.27
2018-04-17T10:57:14.822Z,15.43
2018-04-17T10:59:43.428Z,15.50
2018-04-17T11:02:11.887Z,15.60
2018-04-17T11:04:40.175Z,15.64
2018-04-17T11:07:09.243Z,15.67
2018-04-17T11:09:37.514Z,15.84
2018-04-17T11:12:05.893Z,15.97
2018-04-17T11:14:34.271Z,16.11
2018-04-17T11:17:02.542Z,16.31
2018-04-17T11:19:30.843Z,16.18
2018-04-17T11:21:59.125Z,16.10
2018-04-17T11:24:27.400Z,16.15
2018-04-17T11:26:57.589Z,16.03
2018-04-17T11:29:26.161Z,16.16
2018-04-17T11:31:54.426Z,16.17
2018-04-17T11:34:22.699Z,16.29
2018-04-17T11:36:51.339Z,16.40
2018-04-17T11:39:20.363Z,16.44
2018-04-17T11:41:49.402Z,16.47
2018-04-17T11:44:17.917Z,16.60
2018-04-17T11:46:46.209Z,16.59
2018-04-17T11:49:14.498Z,16.74
2018-04-17T11:51:43.548Z,16.90
2018-04-17T11:54:11.952Z,17.02
2018-04-17T11:56:41.031Z,16.90
2018-04-17T11:59:09.504Z,17.18
2018-04-17T12:01:37.902Z,17.21
2018-04-17T12:04:06.791Z,17.14
2018-04-17T12:06:35.115Z,17.51
2018-04-17T12:09:04.189Z,17.78
2018-04-17T12:11:32.472Z,17.79
2018-04-17T12:14:00.789Z,17.72
2018-04-17T12:16:29.067Z,17.78
2018-04-17T12:18:57.359Z,17.89
2018-04-17T12:21:25.949Z,17.89
2018-04-17T12:23:54.230Z,18.06
2018-04-17T12:26:22.595Z,18.04
2018-04-17T12:28:50.896Z,18.17
2018-04-17T12:31:19.867Z,19.26
2018-04-17T12:33:48.184Z,20.74
2018-04-17T12:36:16.521Z,21.71
2018-04-17T12:38:44.815Z,22.49
2018-04-17T12:41:13.106Z,24.25
2018-04-17T12:43:41.649Z,25.92
2018-04-17T12:46:10.682Z,23.24
2018-04-17T12:48:39.480Z,24.58
2018-04-17T12:51:08.127Z,24.40
2018-04-17T12:53:36.402Z,23.44
2018-04-17T12:56:04.683Z,23.12
2018-04-17T12:58:33.791Z,24.61
2018-04-17T13:01:04.509Z,25.30
2018-04-17T13:03:33.214Z,25.15
2018-04-17T13:06:01.692Z,24.87
2018-04-17T13:08:30.198Z,24.71
2018-04-17T13:10:58.787Z,24.73
2018-04-17T13:13:27.152Z,26.21
2018-04-17T13:15:55.485Z,25.52
2018-04-17T13:18:25.334Z,26.86
2018-04-17T13:20:54.493Z,26.73
2018-04-17T13:23:25.072Z,26.75
2018-04-17T13:25:54.266Z,27.69
2018-04-17T13:28:22.535Z,27.27
2018-04-17T13:30:52.160Z,25.73
2018-04-17T13:33:21.391Z,26.37
2018-04-17T13:35:52.691Z,25.44
2018-04-17T13:38:21.164Z,25.50
2018-04-17T13:40:51.102Z,28.27
2018-04-17T13:43:19.943Z,28.17
2018-04-17T13:45:49.659Z,27.49
2018-04-17T13:48:19.030Z,29.34
2018-04-17T13:50:48.235Z,29.31
2018-04-17T13:53:17.186Z,28.40
2018-04-17T13:55:46.328Z,27.57
2018-04-17T13:58:15.435Z,26.65
2018-04-17T14:00:43.716Z,26.17
2018-04-17T14:03:13.778Z,26.08
2018-04-17T14:05:42.561Z,26.39
2018-04-17T14:08:11.207Z,25.95
2018-04-17T14:10:39.485Z,25.27
2018-04-17T14:13:08.527Z,25.29
2018-04-17T14:15:36.823Z,26.67
2018-04-17T14:18:05.821Z,27.06
2018-04-17T14:20:34.135Z,26.52
2018-04-17T14:23:03.200Z,27.96
2018-04-17T14:25:31.586Z,27.20
2018-04-17T14:28:00.251Z,28.76
2018-04-17T14:30:28.785Z,27.66
2018-04-17T14:32:57.930Z,27.83
2018-04-17T14:35:26.203Z,26.04
2018-04-17T14:37:54.502Z,26.96
2018-04-17T14:40:23.794Z,28.91
2018-04-17T14:42:52.118Z,27.55
2018-04-17T14:45:20.413Z,29.34
2018-04-17T14:47:49.488Z,29.77
2018-04-17T14:50:18.678Z,30.67
2018-04-17T14:52:47.010Z,28.10
2018-04-17T14:55:16.839Z,31.02
2018-04-17T14:57:45.333Z,30.63
2018-04-17T15:00:13.615Z,29.29
2018-04-17T15:02:42.946Z,28.39
2018-04-17T15:05:11.287Z,28.39
2018-04-17T15:07:39.715Z,29.42
2018-04-17T15:10:11.771Z,29.18
2018-04-17T15:12:40.934Z,30.48
2018-04-17T15:15:09.761Z,29.27
2018-04-17T15:17:38.083Z,30.05
2018-04-17T15:20:06.402Z,27.86
2018-04-17T15:22:34.675Z,28.61
2018-04-17T15:25:02.955Z,29.08
2018-04-17T15:27:31.259Z,29.06
2018-04-17T15:30:01.352Z,28.16
2018-04-17T15:32:29.691Z,28.60
2018-04-17T15:34:58.007Z,28.74
2018-04-17T15:37:26.383Z,27.66
2018-04-17T15:39:54.702Z,28.64
2018-04-17T15:42:24.646Z,28.36
2018-04-17T15:44:52.992Z,27.50
2018-04-17T15:47:22.059Z,26.72
2018-04-17T15:49:50.558Z,26.58
2018-04-17T15:52:19.612Z,26.27
2018-04-17T15:54:47.921Z,26.15
2018-04-17T15:57:17.212Z,26.89
2018-04-17T15:59:45.505Z,26.13
2018-04-17T16:02:14.001Z,27.16
2018-04-17T16:04:42.881Z,27.17
2018-04-17T16:07:11.634Z,27.70
2018-04-17T16:09:40.186Z,27.23
2018-04-17T16:12:09.222Z,26.96
2018-04-17T16:14:37.505Z,26.17
2018-04-17T16:17:05.856Z,25.15
2018-04-17T16:19:34.236Z,23.90
2018-04-17T16:22:02.783Z,22.89
2018-04-17T16:24:32.934Z,22.41
2018-04-17T16:27:01.858Z,21.93
2018-04-17T16:29:30.357Z,21.64
2018-04-17T16:31:59.218Z,21.27
2018-04-17T16:34:29.674Z,20.96
2018-04-17T16:36:58.051Z,20.82
2018-04-17T16:39:26.416Z,20.82
2018-04-17T16:41:54.695Z,22.17
2018-04-17T16:44:22.986Z,22.48
2018-04-17T16:46:51.590Z,23.21
2018-04-17T16:49:20.067Z,24.41
2018-04-17T16:51:49.230Z,25.10
2018-04-17T16:54:17.519Z,24.09
2018-04-17T16:56:46.217Z,23.97
2018-04-17T16:59:15.126Z,23.66
2018-04-17T17:01:43.419Z,23.67
2018-04-17T17:04:13.902Z,23.40
2018-04-17T17:06:42.182Z,24.35
2018-04-17T17:09:10.478Z,24.11
2018-04-17T17:11:39.551Z,23.29
2018-04-17T17:14:08.203Z,23.56
2018-04-17T17:16:38.127Z,23.24
2018-04-17T17:19:06.506Z,22.93
2018-04-17T17:21:35.431Z,22.24
2018-04-17T17:24:03.892Z,21.40
2018-04-17T17:26:32.312Z,21.09
2018-04-17T17:29:00.593Z,20.61
2018-04-17T17:31:29.531Z,20.37
2018-04-17T17:33:59.105Z,20.14
2018-04-17T17:36:28.232Z,20.15
2018-04-17T17:38:56.878Z,19.87
2018-04-17T17:41:25.786Z,19.73
2018-04-17T17:43:54.491Z,19.33
2018-04-17T17:46:23.574Z,19.06
2018-04-17T17:48:52.643Z,18.64
2018-04-17T17:51:20.982Z,18.53
2018-04-17T17:53:49.298Z,18.20
2018-04-17T17:56:17.623Z,18.06
2018-04-17T17:58:46.700Z,17.92
2018-04-17T18:01:15.771Z,17.78
2018-04-17T18:03:46.078Z,17.74
2018-04-17T18:06:14.420Z,17.59
2018-04-17T18:08:43.471Z,17.34
2018-04-17T18:11:11.809Z,17.34
2018-04-17T18:13:40.868Z,17.32
2018-04-17T18:16:09.810Z,17.30
2018-04-17T18:18:38.103Z,17.27
2018-04-17T18:21:06.747Z,17.08
2018-04-17T18:23:35.799Z,17.04
2018-04-17T18:26:04.370Z,16.89
2018-04-17T18:28:33.415Z,16.88
2018-04-17T18:31:02.492Z,16.88
2018-04-17T18:33:32.359Z,16.65
2018-04-17T18:36:01.572Z,16.44
2018-04-17T18:38:32.286Z,16.25
2018-04-17T18:41:02.496Z,16.29
2018-04-17T18:43:32.594Z,16.30
2018-04-17T18:46:02.656Z,16.24
2018-04-17T18:48:31.040Z,16.16
2018-04-17T18:51:00.955Z,16.07
2018-04-17T18:53:30.315Z,16.02
2018-04-17T18:56:00.662Z,15.92
2018-04-17T18:58:30.219Z,15.79
2018-04-17T19:00:58.495Z,15.80
2018-04-17T19:03:26.924Z,15.77
2018-04-17T19:05:56.436Z,15.52
2018-04-17T19:08:25.512Z,15.46
2018-04-17T19:10:55.003Z,15.51
2018-04-17T19:13:23.342Z,15.44
2018-04-17T19:15:52.650Z,15.38
2018-04-17T19:18:20.938Z,15.30
2018-04-17T19:20:49.260Z,15.19
2018-04-17T19:23:18.311Z,15.11
2018-04-17T19:25:46.644Z,15.14
2018-04-17T19:28:15.778Z,15.07
2018-04-17T19:30:45.462Z,15.06
2018-04-17T19:33:13.750Z,14.94
2018-04-17T19:35:42.072Z,14.95
2018-04-17T19:38:11.071Z,14.88
2018-04-17T19:40:39.368Z,14.88
2018-04-17T19:43:08.436Z,14.77
2018-04-17T19:45:37.336Z,14.70
2018-04-17T19:48:06.976Z,14.59
2018-04-17T19:50:36.171Z,14.36
2018-04-17T19:53:05.215Z,14.26
2018-04-17T19:55:33.574Z,14.24
2018-04-17T19:58:02.011Z,14.01
2018-04-17T20:00:31.149Z,14.08
2018-04-17T20:02:59.479Z,14.00
2018-04-17T20:05:28.534Z,13.97
2018-04-17T20:07:56.954Z,13.91
2018-04-17T20:10:26.782Z,13.80
2018-04-17T20:12:55.068Z,13.63
2018-04-17T20:15:24.971Z,13.49
2018-04-17T20:17:53.903Z,13.47
2018-04-17T20:20:22.288Z,13.40
2018-04-17T20:22:50.973Z,13.28
2018-04-17T20:25:19.256Z,13.17
2018-04-17T20:27:48.121Z,13.03
2018-04-17T20:30:18.034Z,12.96
2018-04-17T20:32:47.174Z,12.91
2018-04-17T20:35:15.567Z,12.77
2018-04-17T20:37:45.188Z,12.71
2018-04-17T20:40:13.673Z,12.65
2018-04-17T20:42:43.433Z,12.68
2018-04-17T20:45:11.943Z,12.64
2018-04-17T20:47:40.775Z,12.60
2018-04-17T20:50:09.949Z,12.58
2018-04-17T20:52:39.061Z,12.59
2018-04-17T20:55:08.108Z,12.59
2018-04-17T20:57:36.930Z,12.56
2018-04-17T21:00:06.005Z,12.51
2018-04-17T21:02:34.411Z,12.46
2018-04-17T21:05:02.886Z,12.39
2018-04-17T21:07:31.223Z,12.36
2018-04-17T21:09:59.506Z,12.29
2018-04-17T21:12:28.549Z,12.10
2018-04-17T21:14:56.886Z,12.02
2018-04-17T21:17:25.177Z,11.79
2018-04-17T21:19:54.473Z,11.75
2018-04-17T21:22:25.892Z,11.67
2018-04-17T21:24:54.930Z,11.66
2018-04-17T21:27:23.526Z,11.72
2018-04-17T21:29:51.934Z,11.68
2018-04-17T21:32:20.243Z,11.67
2018-04-17T21:34:49.307Z,11.62
2018-04-17T21:37:17.590Z,11.67
2018-04-17T21:39:45.901Z,11.60
2018-04-17T21:42:14.206Z,11.54
2018-04-17T21:44:42.598Z,11.45
2018-04-17T21:47:11.319Z,11.27
2018-04-17T21:49:39.644Z,10.99
2018-04-17T21:52:07.921Z,11.00
2018-04-17T21:54:36.211Z,11.05
2018-04-17T21:57:04.520Z,10.99
2018-04-17T21:59:32.863Z,11.00
2018-04-17T22:02:01.867Z,11.03
2018-04-17T22:04:31.027Z,10.93
2018-04-17T22:06:59.309Z,10.86
2018-04-17T22:09:27.656Z,10.73
2018-04-17T22:11:56.272Z,10.74
2018-04-17T22:14:24.572Z,10.65
2018-04-17T22:16:52.962Z,10.59
2018-04-17T22:19:21.259Z,10.57
2018-04-17T22:21:50.273Z,10.67
2018-04-17T22:24:20.421Z,10.71
2018-04-17T22:26:48.847Z,10.61
2018-04-17T22:29:17.760Z,10.56
2018-04-17T22:31:46.060Z,10.42
2018-04-17T22:34:15.191Z,10.43
2018-04-17T22:36:43.479Z,10.36
2018-04-17T22:39:12.061Z,10.30
2018-04-17T22:41:41.346Z,10.19
2018-04-17T22:44:10.612Z,10.15
2018-04-17T22:46:39.683Z,10.19
2018-04-17T22:49:08.449Z,10.18
2018-04-17T22:51:37.358Z,10.16
2018-04-17T22:54:05.635Z,10.14
2018-04-17T22:56:33.982Z,10.09
2018-04-17T22:59:03.792Z,10.01
2018-04-17T23:01:33.339Z,10.06
2018-04-17T23:04:02.003Z,10.09
2018-04-17T23:06:30.290Z,10.00
2018-04-17T23:08:58.567Z,9.88
2018-04-17T23:11:28.051Z,9.96
2018-04-17T23:13:56.726Z,9.95
2018-04-17T23:16:26.583Z,9.89
2018-04-17T23:18:54.935Z,9.96
2018-04-17T23:21:23.246Z,9.86
2018-04-17T23:23:52.311Z,9.72
2018-04-17T23:26:20.607Z,9.70
2018-04-17T23:28:49.659Z,9.57
2018-04-17T23:31:18.100Z,9.47
2018-04-17T23:33:48.627Z,9.45
2018-04-17T23:36:16.916Z,9.36
2018-04-17T23:38:45.879Z,9.40
2018-04-17T23:41:16.111Z,9.48
2018-04-17T23:43:44.382Z,9.50
2018-04-17T23:46:12.667Z,9.49
2018-04-17T23:48:40.936Z,9.48
2018-04-17T23:51:09.562Z,9.50
2018-04-17T23:53:37.853Z,9.45
2018-04-17T23:56:06.886Z,9.36
2018-04-17T23:58:36.045Z,9.40
